Time;durP1;ratioP1;P1;durP2;ratioP2;P2;SDS_P1;SDS_P2;PMS_P1;PMS_P2;Temp;Humidity;BMP_temperature;BMP_pressure;BME280_temperature;BME280_humidity;BME280_pressure;Samples;Min_cycle;Max_cycle;Signal;HPM_P1;HPM_P2
2024/01/14 00:00:34;;;;;;;;;;;;;;;-4.32;100.00;97006.06;110358;1248;60847;-73
2024/01/14 00:03:24;;;;;;;;;;;;;;;-4.32;100.00;96994.98;110413;1242;73097;-73
2024/01/14 00:05:54;;;;;;;;;;;;;;;-4.32;100.00;96996.88;110468;1240;69120;-73
2024/01/14 00:08:24;;;;;;;;;;;;;;;-4.32;100.00;96996.02;110461;1238;68344;-73
2024/01/14 00:10:54;;;;;;;;;;;;;;;-4.32;100.00;96998.55;110601;1239;60538;-73
2024/01/14 00:13:25;;;;;;;;;;;;;;;-4.29;100.00;96991.55;110646;1245;60539;-73
2024/01/14 00:15:56;;;;;;;;;;;;;;;-4.28;100.00;96989.81;110553;1240;72286;-73
2024/01/14 00:18:27;;;;;;;;;;;;;;;-4.28;100.00;96983.67;110501;1241;69260;-75
2024/01/14 00:20:56;;;;;;;;;;;;;;;-4.28;100.00;96985.72;110543;1241;68383;-75
2024/01/14 00:23:26;;;;;;;;;;;;;;;-4.25;100.00;96984.98;110529;1244;60506;-75
2024/01/14 00:25:56;;;;;;;;;;;;;;;-4.07;100.00;96983.23;110500;1241;60436;-76
2024/01/14 00:28:26;;;;;;;;;;;;;;;-3.94;100.00;96978.52;110581;1241;72088;-73
2024/01/14 00:30:56;;;;;;;;;;;;;;;-3.89;100.00;96972.27;110251;1239;68592;-73
2024/01/14 00:33:26;;;;;;;;;;;;;;;-4.00;100.00;96965.71;110440;1244;69283;-73
2024/01/14 00:36:01;;;;;;;;;;;;;;;-4.14;100.00;96966.89;110385;1241;60511;-73
2024/01/14 00:38:31;;;;;;;;;;;;;;;-4.16;100.00;96971.01;110427;1240;60414;-73
2024/01/14 00:41:01;;;;;;;;;;;;;;;-4.16;100.00;96971.69;110384;1241;71289;-73
2024/01/14 00:43:33;;;;;;;;;;;;;;;-4.15;100.00;96964.70;110242;1242;70164;-73
2024/01/14 00:46:03;;;;;;;;;;;;;;;-4.15;100.00;96955.67;110474;1240;69286;-72
2024/01/14 00:48:37;;;;;;;;;;;;;;;-4.15;100.00;96953.96;110440;1242;60459;-73
2024/01/14 00:51:08;;;;;;;;;;;;;;;-4.16;100.00;96952.80;110452;1241;60516;-73
2024/01/14 00:53:37;;;;;;;;;;;;;;;-4.15;100.00;96951.77;110481;1238;72144;-73
2024/01/14 00:56:07;;;;;;;;;;;;;;;-4.16;100.00;96957.21;110432;1243;68601;-74
2024/01/14 00:58:37;;;;;;;;;;;;;;;-4.15;100.00;96959.59;110441;1238;68512;-73
2024/01/14 01:01:07;;;;;;;;;;;;;;;-4.15;100.00;96965.20;110449;1238;60485;-73
2024/01/14 01:03:39;;;;;;;;;;;;;;;-4.15;100.00;96957.03;110585;1240;60518;-73
2024/01/14 01:06:09;;;;;;;;;;;;;;;-4.16;100.00;96953.30;110531;1242;71486;-75
2024/01/14 01:08:40;;;;;;;;;;;;;;;-4.15;100.00;96947.48;110544;1240;68319;-76
2024/01/14 01:11:14;;;;;;;;;;;;;;;-4.14;100.00;96939.33;110510;1247;69959;-73
2024/01/14 01:13:44;;;;;;;;;;;;;;;-4.13;100.00;96940.31;110410;1238;60519;-74
2024/01/14 01:16:16;;;;;;;;;;;;;;;-3.98;100.00;96934.86;110262;1242;60884;-73
2024/01/14 01:18:47;;;;;;;;;;;;;;;-4.08;100.00;96929.31;110430;1241;71233;-73
2024/01/14 01:21:20;;;;;;;;;;;;;;;-4.09;100.00;96922.69;110406;1241;68690;-73
2024/01/14 01:23:50;;;;;;;;;;;;;;;-4.09;100.00;96916.57;110326;1242;69288;-73
2024/01/14 01:26:21;;;;;;;;;;;;;;;-4.11;100.00;96908.95;110296;1240;60496;-73
2024/01/14 01:28:50;;;;;;;;;;;;;;;-4.09;100.00;96903.80;110308;1242;60494;-74
2024/01/14 01:31:21;;;;;;;;;;;;;;;-4.08;100.00;96896.95;110356;1241;71450;-73
2024/01/14 01:34:06;;;;;;;;;;;;;;;-4.08;100.00;96895.25;110323;1241;68489;-73
2024/01/14 01:36:36;;;;;;;;;;;;;;;-4.10;100.00;96889.01;110278;1242;68491;-74
2024/01/14 01:39:06;;;;;;;;;;;;;;;-4.12;100.00;96879.17;110435;1238;60518;-73
2024/01/14 01:41:36;;;;;;;;;;;;;;;-3.94;100.00;96867.36;110595;1241;60464;-73
2024/01/14 01:44:09;;;;;;;;;;;;;;;-3.87;100.00;96861.41;110452;1238;71279;-74
2024/01/14 01:46:41;;;;;;;;;;;;;;;-3.86;100.00;96866.81;110464;1239;68313;-73
2024/01/14 01:49:12;;;;;;;;;;;;;;;-3.84;100.00;96862.68;110387;1238;68514;-73
2024/01/14 01:51:47;;;;;;;;;;;;;;;-3.85;100.00;96862.70;110460;1238;60497;-74
2024/01/14 01:54:24;;;;;;;;;;;;;;;-3.85;100.00;96855.73;110509;1241;60497;-73
2024/01/14 01:56:55;;;;;;;;;;;;;;;-3.86;100.00;96852.84;110433;1241;72022;-74
2024/01/14 01:59:25;;;;;;;;;;;;;;;-3.89;100.00;96849.70;110518;1241;69142;-73
2024/01/14 02:01:56;;;;;;;;;;;;;;;-3.91;100.00;96842.42;110213;1241;69268;-74
2024/01/14 02:04:29;;;;;;;;;;;;;;;-3.92;100.00;96837.85;110348;1241;60471;-74
2024/01/14 02:06:59;;;;;;;;;;;;;;;-3.92;100.00;96832.23;110379;1241;60479;-74
2024/01/14 02:09:34;;;;;;;;;;;;;;;-3.90;100.00;96831.15;110404;1238;71460;-74
2024/01/14 02:12:05;;;;;;;;;;;;;;;-3.89;100.00;96831.31;110354;1242;69385;-74
2024/01/14 02:14:35;;;;;;;;;;;;;;;-3.89;100.00;96823.80;110535;1242;68514;-74
2024/01/14 02:17:05;;;;;;;;;;;;;;;-3.90;100.00;96819.23;110448;1240;60466;-74
2024/01/14 02:19:37;;;;;;;;;;;;;;;-3.90;100.00;96815.35;110376;1242;60482;-74
2024/01/14 02:22:11;;;;;;;;;;;;;;;-3.90;100.00;96809.36;110605;1241;72230;-74
2024/01/14 02:24:45;;;;;;;;;;;;;;;-3.92;100.00;96799.52;110551;1238;68831;-74
2024/01/14 02:27:15;;;;;;;;;;;;;;;-3.94;100.00;96798.23;110448;1240;68635;-74
2024/01/14 02:29:48;;;;;;;;;;;;;;;-3.97;100.00;96797.81;110554;1238;60540;-74
2024/01/14 02:32:19;;;;;;;;;;;;;;;-4.00;100.00;96797.20;110583;1240;60580;-74
2024/01/14 02:34:49;;;;;;;;;;;;;;;-4.02;100.00;96791.80;110538;1241;72225;-73
2024/01/14 02:37:20;;;;;;;;;;;;;;;-4.03;100.00;96791.16;110502;1238;68539;-74
2024/01/14 02:39:50;;;;;;;;;;;;;;;-4.06;100.00;96786.14;110646;1242;68327;-74
2024/01/14 02:42:21;;;;;;;;;;;;;;;-4.11;100.00;96782.48;110566;1239;60582;-74
2024/01/14 02:44:52;;;;;;;;;;;;;;;-4.14;100.00;96781.55;110625;1239;60470;-74
2024/01/14 02:47:22;;;;;;;;;;;;;;;-4.19;100.00;96786.43;110592;1240;72024;-74
2024/01/14 02:49:53;;;;;;;;;;;;;;;-4.26;100.00;96781.34;110543;1241;69819;-74
2024/01/14 02:52:23;;;;;;;;;;;;;;;-4.33;100.00;96783.54;110667;1241;69298;-74
2024/01/14 02:54:54;;;;;;;;;;;;;;;-4.38;100.00;96780.25;110576;1239;60942;-73
2024/01/14 02:57:27;;;;;;;;;;;;;;;-4.41;100.00;96781.34;110551;1242;60544;-74
2024/01/14 02:59:57;;;;;;;;;;;;;;;-4.43;100.00;96781.55;110585;1243;72189;-74
2024/01/14 03:02:32;;;;;;;;;;;;;;;-4.48;100.00;96778.95;110643;1241;69699;-74
2024/01/14 03:05:04;;;;;;;;;;;;;;;-4.52;100.00;96777.19;110532;1248;69093;-74
2024/01/14 03:07:36;;;;;;;;;;;;;;;-4.58;100.00;96776.30;110503;1239;60512;-73
2024/01/14 03:10:11;;;;;;;;;;;;;;;-4.63;100.00;96772.85;110497;1241;60537;-73
2024/01/14 03:12:43;;;;;;;;;;;;;;;-4.68;100.00;96764.45;110468;1241;70732;-73
2024/01/14 03:15:13;;;;;;;;;;;;;;;-4.73;100.00;96761.85;110571;1241;68310;-73
2024/01/14 03:17:44;;;;;;;;;;;;;;;-4.79;100.00;96760.62;110424;1241;69335;-73
2024/01/14 03:20:22;;;;;;;;;;;;;;;-4.83;100.00;96766.49;110483;1239;60550;-73
2024/01/14 03:22:55;;;;;;;;;;;;;;;-4.85;100.00;96765.70;110487;1239;60552;-73
2024/01/14 03:25:28;;;;;;;;;;;;;;;-4.86;100.00;96761.28;110387;1238;71268;-73
2024/01/14 03:28:00;;;;;;;;;;;;;;;-4.87;100.00;96750.59;110443;1241;69519;-73
2024/01/14 03:30:34;;;;;;;;;;;;;;;-4.87;100.00;96745.15;110387;1241;67510;-73
2024/01/14 03:33:07;;;;;;;;;;;;;;;-4.89;100.00;96734.52;110376;1241;60484;-73
2024/01/14 03:35:41;;;;;;;;;;;;;;;-4.94;100.00;96730.70;110394;1238;60542;-73
2024/01/14 03:38:14;;;;;;;;;;;;;;;-4.99;100.00;96728.94;110371;1238;71450;-73
2024/01/14 03:40:47;;;;;;;;;;;;;;;-5.05;100.00;96723.14;110395;1241;68318;-73
2024/01/14 03:43:19;;;;;;;;;;;;;;;-5.12;100.00;96724.14;110413;1242;69426;-73
2024/01/14 03:45:51;;;;;;;;;;;;;;;-5.19;100.00;96723.95;110448;1239;60541;-73
2024/01/14 03:48:21;;;;;;;;;;;;;;;-5.24;100.00;96724.08;110442;1240;60471;-74
2024/01/14 03:50:51;;;;;;;;;;;;;;;-5.29;100.00;96719.91;110498;1241;72156;-73
2024/01/14 03:53:23;;;;;;;;;;;;;;;-5.36;100.00;96718.88;110438;1239;68263;-74
2024/01/14 03:55:53;;;;;;;;;;;;;;;-5.44;100.00;96716.31;110476;1239;68524;-73
2024/01/14 03:58:23;;;;;;;;;;;;;;;-5.53;100.00;96714.14;110306;1242;60491;-73
2024/01/14 04:00:54;;;;;;;;;;;;;;;-5.62;100.00;96714.99;110464;1240;60427;-73
2024/01/14 04:03:25;;;;;;;;;;;;;;;-5.71;100.00;96710.41;110455;1245;72187;-73
2024/01/14 04:06:04;;;;;;;;;;;;;;;-5.77;100.00;96712.40;110449;1240;69299;-73
2024/01/14 04:08:36;;;;;;;;;;;;;;;-5.81;100.00;96701.95;110473;1238;68563;-73
2024/01/14 04:11:08;;;;;;;;;;;;;;;-5.82;100.00;96699.79;110438;1242;60842;-73
2024/01/14 04:13:39;;;;;;;;;;;;;;;-5.85;100.00;96694.57;110482;1239;60439;-73
2024/01/14 04:16:09;;;;;;;;;;;;;;;-5.89;100.00;96691.58;110487;1240;72181;-73
2024/01/14 04:18:42;;;;;;;;;;;;;;;-5.93;100.00;96691.70;110659;1242;69107;-74
2024/01/14 04:21:24;;;;;;;;;;;;;;;-5.97;100.00;96691.27;110618;1239;69833;-72
2024/01/14 04:23:55;;;;;;;;;;;;;;;-6.03;100.00;96689.52;110545;1241;60516;-72
2024/01/14 04:26:31;;;;;;;;;;;;;;;-6.10;100.00;96686.11;110616;1242;60475;-74
2024/01/14 04:29:04;;;;;;;;;;;;;;;-6.19;100.00;96686.25;110974;1239;71315;-73
2024/01/14 04:31:35;;;;;;;;;;;;;;;-6.25;100.00;96685.69;111193;1240;68515;-73
2024/01/14 04:34:07;;;;;;;;;;;;;;;-6.31;100.00;96681.21;111087;1238;68540;-71
2024/01/14 04:36:39;;;;;;;;;;;;;;;-6.35;100.00;96680.43;111051;1241;60420;-73
2024/01/14 04:39:10;;;;;;;;;;;;;;;-6.37;100.00;96679.64;111436;1238;60492;-73
2024/01/14 04:41:48;;;;;;;;;;;;;;;-6.38;100.00;96673.70;111802;1238;71709;-74
2024/01/14 04:44:21;;;;;;;;;;;;;;;-6.41;100.00;96670.02;111625;1239;69633;-74
2024/01/14 04:46:52;;;;;;;;;;;;;;;-6.42;100.00;96665.14;110778;1239;68355;-73
2024/01/14 04:49:23;;;;;;;;;;;;;;;-6.44;100.00;96666.02;110556;1244;60873;-73
2024/01/14 04:51:54;;;;;;;;;;;;;;;-6.47;100.00;96669.80;110616;1242;60433;-74
2024/01/14 04:54:24;;;;;;;;;;;;;;;-6.48;100.00;96666.09;110400;1238;72350;-74
2024/01/14 04:56:57;;;;;;;;;;;;;;;-6.48;100.00;96663.55;110304;1243;69384;-74
2024/01/14 04:59:27;;;;;;;;;;;;;;;-6.49;100.00;96661.35;110439;1241;69138;-73
2024/01/14 05:01:59;;;;;;;;;;;;;;;-6.48;100.00;96661.16;110364;1241;60498;-73
2024/01/14 05:04:31;;;;;;;;;;;;;;;-6.48;100.00;96660.30;110385;1241;60466;-73
2024/01/14 05:07:01;;;;;;;;;;;;;;;-6.48;100.00;96652.68;110427;1238;72876;-74
2024/01/14 05:09:31;;;;;;;;;;;;;;;-6.49;100.00;96651.36;110505;1241;68380;-73
2024/01/14 05:12:02;;;;;;;;;;;;;;;-6.51;100.00;96648.69;110457;1238;68349;-74
2024/01/14 05:14:32;;;;;;;;;;;;;;;-6.52;100.00;96645.47;110414;1241;60558;-74
2024/01/14 05:17:02;;;;;;;;;;;;;;;-6.51;100.00;96637.00;110534;1241;60483;-74
2024/01/14 05:19:34;;;;;;;;;;;;;;;-6.50;100.00;96635.45;110542;1241;71304;-74
2024/01/14 05:22:06;;;;;;;;;;;;;;;-6.50;100.00;96638.66;110517;1241;68766;-74
2024/01/14 05:24:37;;;;;;;;;;;;;;;-6.51;100.00;96642.91;110455;1243;68507;-73
2024/01/14 05:27:06;;;;;;;;;;;;;;;-6.74;100.00;96645.16;110499;1238;60482;-74
2024/01/14 05:29:40;;;;;;;;;;;;;;;-6.78;100.00;96648.65;110487;1241;60569;-74
2024/01/14 05:32:16;;;;;;;;;;;;;;;-6.81;100.00;96648.34;110495;1242;72091;-73
2024/01/14 05:34:47;;;;;;;;;;;;;;;-6.82;100.00;96644.45;110491;1242;69372;-74
2024/01/14 05:37:21;;;;;;;;;;;;;;;-6.82;100.00;96643.95;110479;1241;69341;-74
2024/01/14 05:39:50;;;;;;;;;;;;;;;-6.83;100.00;96639.08;110502;1242;60617;-73
2024/01/14 05:42:20;;;;;;;;;;;;;;;-6.85;100.00;96632.31;110489;1242;60467;-74
2024/01/14 05:44:51;;;;;;;;;;;;;;;-6.86;100.00;96631.32;110462;1238;70370;-74
2024/01/14 05:47:22;;;;;;;;;;;;;;;-6.89;100.00;96636.61;110498;1241;69268;-73
2024/01/14 05:49:53;;;;;;;;;;;;;;;-6.91;100.00;96631.73;110460;1241;69254;-74
2024/01/14 05:52:23;;;;;;;;;;;;;;;-6.91;100.00;96637.00;110473;1241;60930;-74
2024/01/14 05:54:53;;;;;;;;;;;;;;;-6.92;100.00;96637.52;110468;1241;60481;-74
2024/01/14 05:57:23;;;;;;;;;;;;;;;-6.92;100.00;96635.64;110498;1241;72813;-73
2024/01/14 05:59:53;;;;;;;;;;;;;;;-6.94;100.00;96632.45;110490;1241;69228;-73
2024/01/14 06:02:22;;;;;;;;;;;;;;;-6.95;100.00;96636.02;110261;1241;69203;-73
2024/01/14 06:04:53;;;;;;;;;;;;;;;-6.95;100.00;96632.66;110433;1241;60505;-73
2024/01/14 06:07:22;;;;;;;;;;;;;;;-6.94;100.00;96617.23;110407;1238;60470;-73
2024/01/14 06:09:52;;;;;;;;;;;;;;;-6.92;100.00;96614.65;110309;1238;72032;-74
2024/01/14 06:12:21;;;;;;;;;;;;;;;-6.91;100.00;96608.88;110405;1241;69228;-75
2024/01/14 06:14:51;;;;;;;;;;;;;;;-6.90;100.00;96612.07;110413;1241;69223;-76
2024/01/14 06:17:21;;;;;;;;;;;;;;;-6.90;100.00;96609.69;110402;1241;60539;-75
2024/01/14 06:19:50;;;;;;;;;;;;;;;-6.91;100.00;96605.48;110403;1241;60530;-73
2024/01/14 06:22:21;;;;;;;;;;;;;;;-6.92;100.00;96599.55;110439;1240;72210;-73
2024/01/14 06:24:49;;;;;;;;;;;;;;;-6.90;100.00;96596.83;110424;1240;68228;-73
2024/01/14 06:27:19;;;;;;;;;;;;;;;-6.90;100.00;96593.26;110430;1238;69342;-73
2024/01/14 06:29:48;;;;;;;;;;;;;;;-6.89;100.00;96595.27;110413;1241;60470;-73
2024/01/14 06:32:18;;;;;;;;;;;;;;;-6.86;100.00;96597.61;110391;1241;60472;-74
2024/01/14 06:34:48;;;;;;;;;;;;;;;-6.85;100.00;96602.66;110422;1238;72723;-75
2024/01/14 06:37:18;;;;;;;;;;;;;;;-6.83;100.00;96603.30;110482;1241;69165;-74
2024/01/14 06:39:47;;;;;;;;;;;;;;;-6.78;100.00;96602.05;110441;1241;69216;-74
2024/01/14 06:42:20;;;;;;;;;;;;;;;-6.75;100.00;96602.16;110379;1241;60969;-74
2024/01/14 06:44:52;;;;;;;;;;;;;;;-6.71;100.00;96602.42;110561;1238;60505;-74
2024/01/14 06:47:22;;;;;;;;;;;;;;;-6.67;100.00;96594.89;110510;1241;72208;-74
2024/01/14 06:49:54;;;;;;;;;;;;;;;-6.61;100.00;96593.26;110529;1242;68808;-74
2024/01/14 06:52:39;;;;;;;;;;;;;;;-6.52;100.00;96600.39;110441;1241;69378;-74
2024/01/14 06:55:08;;;;;;;;;;;;;;;-6.44;100.00;96605.16;110458;1241;60482;-74
2024/01/14 06:57:38;;;;;;;;;;;;;;;-6.34;100.00;96598.19;110306;1238;60549;-76
2024/01/14 07:00:09;;;;;;;;;;;;;;;-6.23;100.00;96593.73;110520;1241;72965;-76
2024/01/14 07:02:39;;;;;;;;;;;;;;;-6.10;100.00;96595.16;110487;1241;69949;-75
2024/01/14 07:05:09;;;;;;;;;;;;;;;-5.95;100.00;96591.63;110469;1238;67774;-75
2024/01/14 07:07:39;;;;;;;;;;;;;;;-5.76;100.00;96586.61;110266;1243;60566;-75
2024/01/14 07:10:09;;;;;;;;;;;;;;;-5.46;100.00;96588.16;110557;1241;60466;-75
2024/01/14 07:12:38;;;;;;;;;;;;;;;-5.04;100.00;96590.04;110694;1241;72188;-74
2024/01/14 07:15:08;;;;;;;;;;;;;;;-4.49;100.00;96587.14;110776;1242;69796;-76
2024/01/14 07:17:37;;;;;;;;;;;;;;;-3.89;100.00;96590.92;110641;1238;68632;-75
2024/01/14 07:20:24;;;;;;;;;;;;;;;-3.18;100.00;96586.24;110516;1241;60494;-74
2024/01/14 07:22:54;;;;;;;;;;;;;;;-2.59;100.00;96577.45;110394;1238;60492;-73
2024/01/14 07:25:44;;;;;;;;;;;;;;;-2.05;100.00;96574.91;110397;1238;72752;-74
2024/01/14 07:28:14;;;;;;;;;;;;;;;-1.65;100.00;96577.20;110365;1241;68450;-75
2024/01/14 07:30:42;;;;;;;;;;;;;;;-1.30;99.01;96571.89;110406;1238;69243;-76
2024/01/14 07:33:11;;;;;;;;;;;;;;;-1.22;97.94;96567.86;110466;1244;60407;-74
2024/01/14 07:35:41;;;;;;;;;;;;;;;-1.22;96.03;96567.35;110507;1241;60478;-74
2024/01/14 07:38:10;;;;;;;;;;;;;;;-0.74;98.91;96565.23;110524;1241;72195;-74
2024/01/14 07:40:41;;;;;;;;;;;;;;;-0.42;98.51;96557.55;110486;1241;69137;-73
2024/01/14 07:43:10;;;;;;;;;;;;;;;-0.20;98.67;96550.77;110559;1241;68833;-74
2024/01/14 07:45:39;;;;;;;;;;;;;;;-0.07;92.71;96548.85;110503;1238;60522;-73
2024/01/14 07:48:08;;;;;;;;;;;;;;;0.17;99.64;96548.61;110510;1242;60469;-73
2024/01/14 07:50:37;;;;;;;;;;;;;;;-0.06;91.16;96540.73;110382;1241;71503;-73
2024/01/14 07:53:09;;;;;;;;;;;;;;;-0.19;94.22;96526.21;110541;1238;68160;-73
2024/01/14 07:55:38;;;;;;;;;;;;;;;-0.32;94.38;96519.25;110354;1242;69283;-74
2024/01/14 07:58:11;;;;;;;;;;;;;;;-0.38;94.42;96525.17;110311;1242;60555;-73
2024/01/14 08:00:42;;;;;;;;;;;;;;;-0.42;90.09;96528.98;110351;1241;60506;-73
2024/01/14 08:03:28;;;;;;;;;;;;;;;-0.46;89.90;96526.71;110384;1241;72249;-73
2024/01/14 08:05:58;;;;;;;;;;;;;;;-0.48;92.39;96527.69;110377;1238;68123;-73
2024/01/14 08:08:28;;;;;;;;;;;;;;;-0.56;93.19;96529.36;110370;1239;69855;-74
2024/01/14 08:10:57;;;;;;;;;;;;;;;-0.62;94.60;96525.20;110378;1238;60521;-75
2024/01/14 08:13:26;;;;;;;;;;;;;;;-0.57;95.73;96524.30;110402;1241;60544;-74
2024/01/14 08:15:55;;;;;;;;;;;;;;;-0.71;94.42;96524.58;110413;1238;72858;-72
2024/01/14 08:18:32;;;;;;;;;;;;;;;-0.79;94.73;96528.48;110487;1241;68596;-73
2024/01/14 08:21:01;;;;;;;;;;;;;;;-0.86;94.06;96523.81;110366;1241;69701;-74
2024/01/14 08:23:32;;;;;;;;;;;;;;;-0.81;94.39;96520.00;110365;1241;60916;-74
2024/01/14 08:26:02;;;;;;;;;;;;;;;-0.56;92.78;96521.16;110439;1238;60515;-75
2024/01/14 08:28:32;;;;;;;;;;;;;;;-0.14;91.52;96523.25;110441;1240;72555;-75
2024/01/14 08:31:01;;;;;;;;;;;;;;;0.11;89.54;96530.73;110462;1238;67488;-75
2024/01/14 08:33:30;;;;;;;;;;;;;;;0.49;88.91;96531.70;110390;1238;68298;-75
2024/01/14 08:35:59;;;;;;;;;;;;;;;0.69;89.83;96523.05;110374;1238;60506;-75
2024/01/14 08:38:29;;;;;;;;;;;;;;;0.70;89.98;96516.67;110406;1241;60515;-75
2024/01/14 08:40:58;;;;;;;;;;;;;;;0.72;90.27;96519.32;110455;1241;72655;-75
2024/01/14 08:43:28;;;;;;;;;;;;;;;0.70;89.13;96522.48;110414;1238;69833;-77
2024/01/14 08:45:58;;;;;;;;;;;;;;;0.53;85.52;96531.52;110465;1241;70201;-75
2024/01/14 08:48:27;;;;;;;;;;;;;;;0.39;86.93;96531.64;110448;1238;60492;-75
2024/01/14 08:50:56;;;;;;;;;;;;;;;0.36;87.39;96528.02;110506;1241;60553;-75
2024/01/14 08:53:25;;;;;;;;;;;;;;;0.46;85.54;96538.19;110420;1242;72791;-75
2024/01/14 08:55:56;;;;;;;;;;;;;;;0.56;83.10;96533.27;110454;1239;69422;-76
2024/01/14 08:58:24;;;;;;;;;;;;;;;0.69;83.23;96513.45;110429;1241;68546;-75
2024/01/14 09:00:54;;;;;;;;;;;;;;;0.78;83.54;96510.95;110217;1241;60467;-75
2024/01/14 09:03:24;;;;;;;;;;;;;;;0.76;81.44;96503.86;110490;1241;60586;-75
2024/01/14 09:05:53;;;;;;;;;;;;;;;0.72;82.23;96499.56;110487;1241;72633;-75
2024/01/14 09:08:23;;;;;;;;;;;;;;;0.69;81.98;96502.63;110407;1242;70210;-75
2024/01/14 09:10:52;;;;;;;;;;;;;;;0.68;82.49;96504.59;110389;1241;69817;-75
2024/01/14 09:13:22;;;;;;;;;;;;;;;0.69;81.38;96501.95;110452;1241;60565;-74
2024/01/14 09:15:51;;;;;;;;;;;;;;;0.53;80.60;96500.13;110514;1241;60492;-74
2024/01/14 09:18:21;;;;;;;;;;;;;;;0.50;82.32;96500.27;110490;1242;72911;-75
2024/01/14 09:20:50;;;;;;;;;;;;;;;0.42;81.81;96500.66;110325;1242;69240;-75
2024/01/14 09:23:19;;;;;;;;;;;;;;;0.33;81.37;96495.61;110517;1248;69219;-74
2024/01/14 09:25:48;;;;;;;;;;;;;;;0.25;82.03;96489.45;110515;1241;60584;-74
2024/01/14 09:28:17;;;;;;;;;;;;;;;0.17;82.85;96490.00;110409;1241;60473;-74
2024/01/14 09:30:46;;;;;;;;;;;;;;;0.06;81.69;96495.52;110353;1242;72181;-74
2024/01/14 09:33:15;;;;;;;;;;;;;;;-0.03;82.86;96491.60;110375;1238;68467;-74
2024/01/14 09:35:44;;;;;;;;;;;;;;;-0.05;83.56;96488.42;110498;1241;69096;-75
2024/01/14 09:38:13;;;;;;;;;;;;;;;0.02;84.71;96483.50;110291;1241;60502;-74
2024/01/14 09:40:42;;;;;;;;;;;;;;;0.04;83.98;96484.60;110325;1241;60478;-74
2024/01/14 09:43:11;;;;;;;;;;;;;;;0.02;82.77;96487.97;110508;1241;72802;-74
2024/01/14 09:45:41;;;;;;;;;;;;;;;0.04;83.67;96492.13;110457;1239;68279;-74
2024/01/14 09:48:18;;;;;;;;;;;;;;;0.03;82.89;96487.05;110324;1241;70199;-75
2024/01/14 09:50:49;;;;;;;;;;;;;;;-0.06;82.13;96481.64;110378;1241;60569;-75
2024/01/14 09:53:19;;;;;;;;;;;;;;;-0.22;82.12;96478.27;110379;1241;60430;-75
2024/01/14 09:55:48;;;;;;;;;;;;;;;-0.32;82.60;96483.64;110458;1245;72670;-75
2024/01/14 09:58:17;;;;;;;;;;;;;;;-0.49;82.85;96476.52;110371;1242;70212;-75
2024/01/14 10:00:47;;;;;;;;;;;;;;;-0.47;82.72;96473.02;110346;1242;70152;-75
2024/01/14 10:03:16;;;;;;;;;;;;;;;-0.60;82.92;96467.26;110404;1241;60559;-74
2024/01/14 10:05:46;;;;;;;;;;;;;;;-0.67;83.58;96463.64;110376;1241;60929;-75
2024/01/14 10:08:15;;;;;;;;;;;;;;;-0.59;83.63;96464.32;110409;1241;72042;-75
2024/01/14 10:10:53;;;;;;;;;;;;;;;-0.50;83.15;96468.18;110418;1244;69828;-75
2024/01/14 10:13:26;;;;;;;;;;;;;;;-0.37;83.62;96469.30;110373;1241;69253;-74
2024/01/14 10:15:56;;;;;;;;;;;;;;;-0.17;82.38;96467.76;110383;1240;60493;-74
2024/01/14 10:18:27;;;;;;;;;;;;;;;-0.16;79.75;96470.27;110409;1241;60479;-74
2024/01/14 10:20:57;;;;;;;;;;;;;;;0.04;78.78;96470.39;110414;1241;72162;-74
2024/01/14 10:23:27;;;;;;;;;;;;;;;0.21;81.24;96474.55;110409;1242;69244;-74
2024/01/14 10:26:01;;;;;;;;;;;;;;;0.28;79.41;96473.91;110422;1242;68755;-74
2024/01/14 10:28:31;;;;;;;;;;;;;;;0.26;79.24;96471.77;110343;1241;60470;-74
2024/01/14 10:31:04;;;;;;;;;;;;;;;0.00;77.21;96469.86;110376;1242;60511;-74
2024/01/14 10:33:34;;;;;;;;;;;;;;;0.18;78.10;96464.07;110359;1241;72515;-74
2024/01/14 10:36:10;;;;;;;;;;;;;;;0.31;77.72;96459.19;110482;1241;69842;-74
2024/01/14 10:38:40;;;;;;;;;;;;;;;0.39;78.42;96456.40;110412;1242;69661;-74
2024/01/14 10:41:09;;;;;;;;;;;;;;;0.42;77.30;96455.21;110458;1241;60547;-74
2024/01/14 10:43:38;;;;;;;;;;;;;;;0.55;76.96;96454.81;110478;1241;60466;-74
2024/01/14 10:46:07;;;;;;;;;;;;;;;0.55;75.04;96452.90;110378;1241;72799;-74
2024/01/14 10:48:40;;;;;;;;;;;;;;;0.67;74.51;96450.27;110387;1242;69827;-74
2024/01/14 10:51:13;;;;;;;;;;;;;;;0.72;74.57;96449.70;110358;1238;69206;-74
2024/01/14 10:53:48;;;;;;;;;;;;;;;0.79;76.13;96442.63;110461;1241;60474;-76
2024/01/14 10:56:20;;;;;;;;;;;;;;;0.80;76.02;96438.66;110370;1242;60865;-74
2024/01/14 10:58:53;;;;;;;;;;;;;;;1.01;74.30;96435.90;110459;1241;72761;-73
2024/01/14 11:01:23;;;;;;;;;;;;;;;1.37;71.63;96433.89;110418;1241;69242;-74
2024/01/14 11:03:54;;;;;;;;;;;;;;;1.70;72.71;96435.78;110330;1241;70358;-73
2024/01/14 11:06:26;;;;;;;;;;;;;;;1.83;71.32;96430.07;109859;1241;60585;-74
2024/01/14 11:08:55;;;;;;;;;;;;;;;2.21;67.75;96429.77;110352;1241;60507;-76
2024/01/14 11:11:29;;;;;;;;;;;;;;;2.88;65.64;96425.42;110429;1241;72775;-74
2024/01/14 11:14:03;;;;;;;;;;;;;;;3.53;60.49;96419.36;110528;1241;69650;-73
2024/01/14 11:16:38;;;;;;;;;;;;;;;4.29;59.47;96415.85;110221;1241;69306;-75
2024/01/14 11:19:11;;;;;;;;;;;;;;;4.55;57.27;96409.70;110383;1241;60537;-74
2024/01/14 11:22:00;;;;;;;;;;;;;;;4.82;57.74;96407.64;110347;1242;60523;-73
2024/01/14 11:24:50;;;;;;;;;;;;;;;5.11;55.74;96411.05;110233;1241;72771;-73
2024/01/14 11:27:19;;;;;;;;;;;;;;;4.95;55.65;96407.42;110457;1242;69833;-73
2024/01/14 11:29:53;;;;;;;;;;;;;;;5.33;55.60;96400.05;110452;1242;69242;-73
2024/01/14 11:32:23;;;;;;;;;;;;;;;5.48;53.57;96400.11;110498;1241;60522;-74
2024/01/14 11:34:54;;;;;;;;;;;;;;;5.77;54.48;96400.35;110523;1238;60509;-73
2024/01/14 11:37:30;;;;;;;;;;;;;;;5.69;52.67;96404.20;110424;1241;72826;-73
2024/01/14 11:40:07;;;;;;;;;;;;;;;5.72;53.98;96404.68;110364;1240;69213;-73
2024/01/14 11:42:37;;;;;;;;;;;;;;;5.04;53.69;96405.12;110309;1241;69911;-75
2024/01/14 11:45:23;;;;;;;;;;;;;;;4.70;56.02;96405.65;110336;1242;60530;-75
2024/01/14 11:47:55;;;;;;;;;;;;;;;3.99;56.92;96413.42;110391;1246;60890;-73
2024/01/14 11:50:28;;;;;;;;;;;;;;;3.99;57.57;96411.58;110400;1241;72251;-72
2024/01/14 11:52:57;;;;;;;;;;;;;;;3.46;57.58;96409.48;110306;1241;69059;-73
2024/01/14 11:55:28;;;;;;;;;;;;;;;3.22;58.73;96406.25;110322;1242;69243;-72
2024/01/14 11:58:17;;;;;;;;;;;;;;;2.81;60.21;96405.02;110306;1241;60550;-72
2024/01/14 12:00:48;;;;;;;;;;;;;;;2.49;61.80;96404.77;110341;1248;60553;-73
2024/01/14 12:03:19;;;;;;;;;;;;;;;2.18;62.78;96401.17;110398;1238;72178;-73
2024/01/14 12:05:48;;;;;;;;;;;;;;;1.69;64.72;96401.45;110359;1241;70204;-73
2024/01/14 12:08:21;;;;;;;;;;;;;;;1.52;66.08;96403.92;110383;1241;69255;-73
2024/01/14 12:10:50;;;;;;;;;;;;;;;1.33;68.05;96403.36;110392;1242;60492;-73
2024/01/14 12:13:19;;;;;;;;;;;;;;;1.67;67.53;96403.64;110350;1242;60430;-73
2024/01/14 12:15:48;;;;;;;;;;;;;;;1.80;67.02;96404.95;110209;1245;72438;-73
2024/01/14 12:18:38;;;;;;;;;;;;;;;1.85;66.96;96411.77;110374;1242;69892;-73
2024/01/14 12:21:15;;;;;;;;;;;;;;;1.82;67.07;96412.11;110353;1242;69857;-73
2024/01/14 12:23:57;;;;;;;;;;;;;;;1.61;67.58;96414.77;110441;1242;60543;-73
2024/01/14 12:26:26;;;;;;;;;;;;;;;1.59;67.66;96416.26;110428;1238;60518;-73
2024/01/14 12:28:56;;;;;;;;;;;;;;;1.57;67.86;96413.77;110439;1241;73461;-75
2024/01/14 12:31:25;;;;;;;;;;;;;;;1.12;70.07;96412.88;110382;1241;70263;-75
2024/01/14 12:34:08;;;;;;;;;;;;;;;1.13;70.49;96413.86;110461;1241;69772;-73
2024/01/14 12:36:37;;;;;;;;;;;;;;;0.91;70.95;96414.58;110369;1242;60541;-73
2024/01/14 12:39:20;;;;;;;;;;;;;;;0.58;72.84;96413.84;110347;1241;60505;-74
2024/01/14 12:41:50;;;;;;;;;;;;;;;0.27;75.37;96417.40;110410;1242;72588;-74
2024/01/14 12:44:26;;;;;;;;;;;;;;;0.35;74.85;96418.02;110377;1241;69651;-74
2024/01/14 12:47:06;;;;;;;;;;;;;;;0.45;74.65;96414.81;110437;1241;69693;-73
2024/01/14 12:49:37;;;;;;;;;;;;;;;0.59;73.66;96418.23;110345;1242;60492;-73
2024/01/14 12:52:08;;;;;;;;;;;;;;;0.67;74.14;96418.71;110218;1243;60544;-73
2024/01/14 12:54:37;;;;;;;;;;;;;;;0.73;74.00;96420.14;110370;1242;72760;-73